createdAt,value
2023-02-09T00:02:00.569Z,15.00
2023-02-09T00:04:25.775Z,14.85
2023-02-09T00:06:50.410Z,15.13
2023-02-09T00:09:15.193Z,11.13
2023-02-09T00:11:58.840Z,16.10
2023-02-09T00:14:23.563Z,15.55
2023-02-09T00:16:51.085Z,10.82
2023-02-09T00:19:16.439Z,11.77
2023-02-09T00:21:41.815Z,10.27
2023-02-09T00:24:07.465Z,11.88
2023-02-09T00:26:32.121Z,13.88
2023-02-09T00:28:58.177Z,11.95
2023-02-09T00:31:22.951Z,11.15
2023-02-09T00:33:47.667Z,10.55
2023-02-09T00:36:14.355Z,9.55
2023-02-09T00:38:39.060Z,9.63
2023-02-09T00:41:04.158Z,10.55
2023-02-09T00:43:29.095Z,11.10
2023-02-09T00:45:55.412Z,11.70
2023-02-09T00:48:20.407Z,13.52
2023-02-09T00:50:45.491Z,17.23
2023-02-09T00:53:10.371Z,11.57
2023-02-09T00:55:38.907Z,14.13
2023-02-09T00:58:04.946Z,12.48
2023-02-09T01:00:29.921Z,20.70
2023-02-09T01:02:57.650Z,12.60
2023-02-09T01:05:22.858Z,8.70
2023-02-09T01:07:47.472Z,11.23
2023-02-09T01:10:12.475Z,10.77
2023-02-09T01:12:39.851Z,11.80
2023-02-09T01:15:04.598Z,9.38
2023-02-09T01:17:29.363Z,10.88
2023-02-09T01:19:56.675Z,6.80
2023-02-09T01:22:21.120Z,8.52
2023-02-09T01:24:46.648Z,8.23
2023-02-09T01:27:12.667Z,6.80
2023-02-09T01:29:37.452Z,8.05
2023-02-09T01:32:02.202Z,6.97
2023-02-09T01:34:26.962Z,7.13
2023-02-09T01:36:52.878Z,8.10
2023-02-09T01:39:18.386Z,7.82
2023-02-09T01:41:43.585Z,6.88
2023-02-09T01:44:29.574Z,8.00
2023-02-09T01:46:54.293Z,8.77
2023-02-09T01:49:21.543Z,7.43
2023-02-09T01:51:50.246Z,8.25
2023-02-09T01:54:22.497Z,7.30
2023-02-09T01:56:52.564Z,9.35
2023-02-09T01:59:18.056Z,8.10
2023-02-09T02:01:44.580Z,8.32
2023-02-09T02:04:09.806Z,8.63
2023-02-09T02:06:34.547Z,8.00
2023-02-09T02:09:03.545Z,8.63
2023-02-09T02:11:29.969Z,8.37
2023-02-09T02:13:54.613Z,8.85
2023-02-09T02:16:51.867Z,9.70
2023-02-09T02:19:45.797Z,10.13
2023-02-09T02:22:36.692Z,9.60
2023-02-09T02:25:30.366Z,8.95
2023-02-09T02:28:10.633Z,8.98
2023-02-09T02:30:59.487Z,11.10
2023-02-09T02:33:37.396Z,10.20
2023-02-09T02:36:07.971Z,8.73
2023-02-09T02:38:37.528Z,10.55
2023-02-09T02:41:14.114Z,10.20
2023-02-09T02:43:45.505Z,13.95
2023-02-09T02:46:16.907Z,13.82
2023-02-09T02:48:47.806Z,13.57
2023-02-09T02:51:18.435Z,11.25
2023-02-09T02:53:48.820Z,11.70
2023-02-09T02:56:19.314Z,11.93
2023-02-09T02:58:47.708Z,10.98
2023-02-09T03:01:16.206Z,11.45
2023-02-09T03:03:44.625Z,11.60
2023-02-09T03:06:11.672Z,11.77
2023-02-09T03:08:50.446Z,10.85
2023-02-09T03:11:15.467Z,10.35
2023-02-09T03:13:47.048Z,10.07
2023-02-09T03:16:21.928Z,11.73
2023-02-09T03:19:00.549Z,12.68
2023-02-09T03:21:33.608Z,11.48
2023-02-09T03:24:04.683Z,12.45
2023-02-09T03:26:34.330Z,11.50
2023-02-09T03:29:00.392Z,11.07
2023-02-09T03:31:26.138Z,11.65
2023-02-09T03:33:53.337Z,9.57
2023-02-09T03:36:19.664Z,13.18
2023-02-09T03:38:44.567Z,11.82
2023-02-09T03:41:09.095Z,12.68
2023-02-09T03:43:51.120Z,12.48
2023-02-09T03:46:15.784Z,13.38
2023-02-09T03:48:40.385Z,14.73
2023-02-09T03:51:07.257Z,15.82
2023-02-09T03:53:31.716Z,15.50
2023-02-09T03:55:56.379Z,14.48
2023-02-09T03:58:20.886Z,15.68
2023-02-09T04:00:46.614Z,16.20
2023-02-09T04:03:11.269Z,15.80
2023-02-09T04:05:36.198Z,16.58
2023-02-09T04:08:02.212Z,18.73
2023-02-09T04:10:26.866Z,18.13
2023-02-09T04:12:51.363Z,17.10
2023-02-09T04:15:16.007Z,19.85
2023-02-09T04:17:40.500Z,20.08
2023-02-09T04:20:05.771Z,20.27
2023-02-09T04:22:30.257Z,19.85
2023-02-09T04:24:57.236Z,21.52
2023-02-09T04:27:22.090Z,22.33
2023-02-09T04:29:47.785Z,21.10
2023-02-09T04:32:12.611Z,24.20
2023-02-09T04:34:37.476Z,22.83
2023-02-09T04:37:02.063Z,22.98
2023-02-09T04:39:26.697Z,24.45
2023-02-09T04:41:52.705Z,24.58
2023-02-09T04:44:17.188Z,26.25
2023-02-09T04:46:42.125Z,25.60
2023-02-09T04:49:07.596Z,27.38
2023-02-09T04:51:32.161Z,26.42
2023-02-09T04:53:56.888Z,25.52
2023-02-09T04:56:21.582Z,27.00
2023-02-09T04:59:05.086Z,28.15
2023-02-09T05:01:30.046Z,29.80
2023-02-09T05:03:55.141Z,28.77
2023-02-09T05:06:20.415Z,31.50
2023-02-09T05:08:45.644Z,32.70
2023-02-09T05:11:10.546Z,35.25
2023-02-09T05:13:35.449Z,33.88
2023-02-09T05:16:01.361Z,36.20
2023-02-09T05:18:26.548Z,33.17
2023-02-09T05:20:51.468Z,34.38
2023-02-09T05:23:16.253Z,35.00
2023-02-09T05:25:41.153Z,33.85
2023-02-09T05:28:06.310Z,34.45
2023-02-09T05:30:31.697Z,34.88
2023-02-09T05:32:58.016Z,31.70
2023-02-09T05:35:22.735Z,29.00
2023-02-09T05:37:47.419Z,28.85
2023-02-09T05:40:13.936Z,26.17
2023-02-09T05:42:38.696Z,26.08
2023-02-09T05:45:03.332Z,25.95
2023-02-09T05:47:29.838Z,24.40
2023-02-09T05:49:55.888Z,25.75
2023-02-09T05:52:21.409Z,24.45
2023-02-09T05:54:46.157Z,23.25
2023-02-09T05:57:11.468Z,23.38
2023-02-09T05:59:36.269Z,23.40
2023-02-09T06:02:01.497Z,25.85
2023-02-09T06:04:26.670Z,22.55
2023-02-09T06:06:53.136Z,20.55
2023-02-09T06:09:19.459Z,23.30
2023-02-09T06:11:44.023Z,21.67
2023-02-09T06:14:08.615Z,18.70
2023-02-09T06:16:33.358Z,18.00
2023-02-09T06:18:58.032Z,18.27
2023-02-09T06:21:22.602Z,20.02
2023-02-09T06:23:48.753Z,19.92
2023-02-09T06:26:15.801Z,20.05
2023-02-09T06:28:41.030Z,19.50
2023-02-09T06:31:06.278Z,17.38
2023-02-09T06:33:31.181Z,16.75
2023-02-09T06:35:55.797Z,15.52
2023-02-09T06:38:20.402Z,17.40
2023-02-09T06:40:47.396Z,14.82
2023-02-09T06:43:12.173Z,16.13
2023-02-09T06:45:40.613Z,15.85
2023-02-09T06:48:06.368Z,17.08
2023-02-09T06:50:31.120Z,17.52
2023-02-09T06:52:55.872Z,17.67
2023-02-09T06:55:20.590Z,15.85
2023-02-09T06:57:46.828Z,15.77
2023-02-09T07:00:13.031Z,15.35
2023-02-09T07:02:37.666Z,15.20
2023-02-09T07:05:02.230Z,15.40
2023-02-09T07:07:28.565Z,15.85
2023-02-09T07:09:53.436Z,15.02
2023-02-09T07:12:18.223Z,14.60
2023-02-09T07:14:46.016Z,14.30
2023-02-09T07:17:10.641Z,14.07
2023-02-09T07:19:35.228Z,14.13
2023-02-09T07:21:59.818Z,15.77
2023-02-09T07:24:24.798Z,14.63
2023-02-09T07:26:49.382Z,14.35
2023-02-09T07:29:13.949Z,13.93
2023-02-09T07:31:40.501Z,13.65
2023-02-09T07:34:05.423Z,13.88
2023-02-09T07:36:30.442Z,14.45
2023-02-09T07:39:00.197Z,13.52
2023-02-09T07:41:27.915Z,13.65
2023-02-09T07:43:54.309Z,13.43
2023-02-09T07:46:25.848Z,13.00
2023-02-09T07:48:55.457Z,12.25
2023-02-09T07:51:55.301Z,13.45
2023-02-09T07:54:52.522Z,13.65
2023-02-09T07:57:32.127Z,13.45
2023-02-09T07:59:57.970Z,12.45
2023-02-09T08:02:48.982Z,12.35
2023-02-09T08:05:24.150Z,12.90
2023-02-09T08:07:50.149Z,12.98
2023-02-09T08:10:26.674Z,12.05
2023-02-09T08:13:01.067Z,12.00
2023-02-09T08:15:26.450Z,12.48
2023-02-09T08:17:54.372Z,11.57
2023-02-09T08:20:25.051Z,10.13
2023-02-09T08:22:57.492Z,12.68
2023-02-09T08:25:23.872Z,11.80
2023-02-09T08:27:49.085Z,11.32
2023-02-09T08:30:20.947Z,10.25
2023-02-09T08:32:56.869Z,10.55
2023-02-09T08:35:24.045Z,11.45
2023-02-09T08:37:51.398Z,10.60
2023-02-09T08:40:24.197Z,8.27
2023-02-09T08:42:49.082Z,8.43
2023-02-09T08:45:13.788Z,7.20
2023-02-09T08:47:38.998Z,9.45
2023-02-09T08:50:03.977Z,6.47
2023-02-09T08:52:30.095Z,8.38
2023-02-09T08:54:54.724Z,8.05
2023-02-09T08:57:19.268Z,8.90
2023-02-09T08:59:44.028Z,8.10
2023-02-09T09:02:08.652Z,9.68
2023-02-09T09:04:33.608Z,8.63
2023-02-09T09:06:58.304Z,8.75
2023-02-09T09:09:25.000Z,10.80
2023-02-09T09:11:49.990Z,11.30
2023-02-09T09:14:14.639Z,9.18
2023-02-09T09:16:39.412Z,8.60
2023-02-09T09:19:06.521Z,7.85
2023-02-09T09:21:31.009Z,7.60
2023-02-09T09:23:55.608Z,7.30
2023-02-09T09:26:21.831Z,6.20
2023-02-09T09:28:47.060Z,8.27
2023-02-09T09:31:12.718Z,7.40
2023-02-09T09:33:37.639Z,8.98
2023-02-09T09:36:03.228Z,7.88
2023-02-09T09:38:27.914Z,8.35
2023-02-09T09:40:52.695Z,9.35
2023-02-09T09:43:26.089Z,9.00
2023-02-09T09:45:51.959Z,8.63
2023-02-09T09:48:24.669Z,9.18
2023-02-09T09:50:50.205Z,9.50
2023-02-09T09:53:19.285Z,8.95
2023-02-09T09:55:46.200Z,8.77
2023-02-09T09:58:20.359Z,9.05
2023-02-09T10:00:44.929Z,10.38
2023-02-09T10:03:16.235Z,9.65
2023-02-09T10:05:41.765Z,12.13
2023-02-09T10:08:13.173Z,10.93
2023-02-09T10:10:43.689Z,10.38
2023-02-09T10:13:17.507Z,11.18
2023-02-09T10:15:49.044Z,11.30
2023-02-09T10:18:17.073Z,10.77
2023-02-09T10:20:45.417Z,10.90
2023-02-09T10:23:17.534Z,11.80
2023-02-09T10:25:54.212Z,10.90
2023-02-09T10:28:23.000Z,11.50
2023-02-09T10:30:53.153Z,13.45
2023-02-09T10:33:17.975Z,11.45
2023-02-09T10:35:46.611Z,11.70
2023-02-09T10:38:18.851Z,12.73
2023-02-09T10:40:44.215Z,12.13
2023-02-09T10:43:25.911Z,12.13
2023-02-09T10:45:57.795Z,11.18
2023-02-09T10:48:24.527Z,12.02
2023-02-09T10:50:51.927Z,10.55
2023-02-09T10:53:22.492Z,10.07
2023-02-09T10:55:47.608Z,11.65
2023-02-09T10:58:22.155Z,11.40
2023-02-09T11:00:52.221Z,12.40
2023-02-09T11:05:48.727Z,11.98
2023-02-09T11:08:19.039Z,13.63
2023-02-09T11:10:51.424Z,12.50
2023-02-09T11:13:22.468Z,11.25
2023-02-09T11:16:00.301Z,11.55
2023-02-09T11:18:30.150Z,12.52
2023-02-09T11:21:00.766Z,12.73
2023-02-09T11:23:40.168Z,12.45
2023-02-09T11:26:10.643Z,14.38
2023-02-09T11:28:48.831Z,14.20
2023-02-09T11:31:51.846Z,17.23
2023-02-09T11:34:51.869Z,15.30
2023-02-09T11:39:55.070Z,14.30
2023-02-09T11:42:43.517Z,15.25
2023-02-09T11:45:12.412Z,15.77
2023-02-09T11:47:50.855Z,15.13
2023-02-09T11:50:25.915Z,13.73
2023-02-09T11:52:54.058Z,15.38
2023-02-09T11:55:29.048Z,15.52
2023-02-09T11:57:59.921Z,14.25
2023-02-09T12:00:29.169Z,15.50
2023-02-09T12:03:00.732Z,15.73
2023-02-09T12:05:28.217Z,17.40
2023-02-09T12:08:15.843Z,17.30
2023-02-09T12:10:46.675Z,16.40
2023-02-09T12:13:27.357Z,17.95
2023-02-09T12:15:53.736Z,17.20
2023-02-09T12:18:21.302Z,17.58
2023-02-09T12:20:55.882Z,15.35
2023-02-09T12:23:32.028Z,17.83
2023-02-09T12:26:00.020Z,15.65
2023-02-09T12:28:45.166Z,15.02
2023-02-09T12:31:28.470Z,15.15
2023-02-09T12:34:21.867Z,15.07
2023-02-09T12:37:28.472Z,14.57
2023-02-09T12:40:22.935Z,14.82
2023-02-09T12:43:04.292Z,14.65
2023-02-09T12:45:37.025Z,12.40
2023-02-09T12:48:12.610Z,12.13
2023-02-09T12:50:52.464Z,13.68
2023-02-09T12:53:47.168Z,14.05
2023-02-09T12:56:33.682Z,15.18
2023-02-09T12:59:14.375Z,12.95
2023-02-09T13:02:06.191Z,14.77
2023-02-09T13:04:36.306Z,14.07
2023-02-09T13:07:04.216Z,15.68
2023-02-09T13:09:36.569Z,15.27
2023-02-09T13:12:11.729Z,14.52
2023-02-09T13:14:38.839Z,14.70
2023-02-09T13:17:29.421Z,15.43
2023-02-09T13:20:16.906Z,16.20
2023-02-09T13:22:54.444Z,18.23
2023-02-09T13:25:30.013Z,17.05
2023-02-09T13:27:55.573Z,16.48
2023-02-09T13:30:28.062Z,16.45
2023-02-09T13:33:03.055Z,18.77
2023-02-09T13:35:32.033Z,20.27
2023-02-09T13:37:58.474Z,20.98
2023-02-09T13:40:26.687Z,17.10
2023-02-09T13:43:00.524Z,17.40
2023-02-09T13:45:28.276Z,17.27
2023-02-09T13:47:53.157Z,16.30
2023-02-09T13:50:20.524Z,18.55
2023-02-09T13:52:45.393Z,18.25
2023-02-09T13:55:13.072Z,18.23
2023-02-09T13:57:42.167Z,17.27
2023-02-09T14:00:15.119Z,17.60
2023-02-09T14:02:50.430Z,18.80
2023-02-09T14:05:26.705Z,17.15
2023-02-09T14:07:52.588Z,18.05
2023-02-09T14:10:19.968Z,15.50
2023-02-09T14:12:56.523Z,15.88
2023-02-09T14:15:41.780Z,15.85
2023-02-09T14:18:33.555Z,11.32
2023-02-09T14:21:10.744Z,15.35
2023-02-09T14:23:50.398Z,12.88
2023-02-09T14:26:30.215Z,13.23
2023-02-09T14:29:08.556Z,12.25
2023-02-09T14:31:37.948Z,13.52
2023-02-09T14:34:03.448Z,12.35
2023-02-09T14:36:34.725Z,11.63
2023-02-09T14:39:13.648Z,10.90
2023-02-09T14:41:43.070Z,11.33
2023-02-09T14:44:22.044Z,11.95
2023-02-09T14:46:51.984Z,12.57
2023-02-09T14:51:41.459Z,11.77
2023-02-09T14:54:19.172Z,11.90
2023-02-09T14:56:44.105Z,12.02
2023-02-09T14:59:12.338Z,13.45
2023-02-09T15:01:38.747Z,13.55
2023-02-09T15:04:03.317Z,13.85
2023-02-09T15:06:33.114Z,13.07
2023-02-09T15:08:57.701Z,12.40
2023-02-09T15:11:42.881Z,10.32
2023-02-09T15:14:09.684Z,11.00
2023-02-09T15:16:34.559Z,11.82
2023-02-09T15:19:01.122Z,13.02
2023-02-09T15:21:26.383Z,13.48
2023-02-09T15:23:51.307Z,13.02
2023-02-09T15:26:17.837Z,11.57
2023-02-09T15:28:42.372Z,10.98
2023-02-09T15:31:06.943Z,11.23
2023-02-09T15:33:31.523Z,12.25
2023-02-09T15:35:59.646Z,12.32
2023-02-09T15:38:24.716Z,13.18
2023-02-09T15:41:08.211Z,13.77
2023-02-09T15:43:50.218Z,12.48
2023-02-09T15:46:32.997Z,14.02
2023-02-09T15:48:57.622Z,12.23
2023-02-09T15:51:25.233Z,10.63
2023-02-09T15:53:50.686Z,11.45
2023-02-09T15:56:15.948Z,13.10
2023-02-09T15:58:43.428Z,10.60
2023-02-09T16:01:08.511Z,11.80
2023-02-09T16:03:33.505Z,11.40
2023-02-09T16:06:01.720Z,11.30
2023-02-09T16:08:30.364Z,10.52
2023-02-09T16:10:55.685Z,11.25
2023-02-09T16:13:21.216Z,11.50
2023-02-09T16:15:46.188Z,11.55
2023-02-09T16:18:10.988Z,11.73
2023-02-09T16:20:36.042Z,12.10
2023-02-09T16:23:18.658Z,12.05
2023-02-09T16:25:48.175Z,13.02
2023-02-09T16:28:15.232Z,13.75
2023-02-09T16:30:49.264Z,12.55
2023-02-09T16:33:16.986Z,13.75
2023-02-09T16:35:42.073Z,14.05
2023-02-09T16:38:17.407Z,13.80
2023-02-09T16:40:42.169Z,14.27
2023-02-09T16:43:12.443Z,15.15
2023-02-09T16:45:38.845Z,14.73
2023-02-09T16:48:03.923Z,13.43
2023-02-09T16:50:32.972Z,14.27
2023-02-09T16:52:58.060Z,14.40
2023-02-09T16:55:26.516Z,16.23
2023-02-09T16:57:54.674Z,13.75
2023-02-09T17:00:21.444Z,13.93
2023-02-09T17:02:51.096Z,14.02
2023-02-09T17:05:20.423Z,15.68
2023-02-09T17:07:54.460Z,16.52
2023-02-09T17:10:21.475Z,15.20
2023-02-09T17:12:46.478Z,14.00
2023-02-09T17:15:28.515Z,14.48
2023-02-09T17:17:58.457Z,15.45
2023-02-09T17:22:52.170Z,15.18
2023-02-09T17:25:17.821Z,16.13
2023-02-09T17:27:42.419Z,15.77
2023-02-09T17:30:08.749Z,15.23
2023-02-09T17:32:33.572Z,14.52
2023-02-09T17:34:59.575Z,15.30
2023-02-09T17:37:24.243Z,16.98
2023-02-09T17:39:50.839Z,15.68
2023-02-09T17:42:22.932Z,15.77
2023-02-09T17:44:47.558Z,15.95
2023-02-09T17:47:16.240Z,15.65
2023-02-09T17:49:41.069Z,16.33
2023-02-09T17:52:07.308Z,17.13
2023-02-09T17:54:33.676Z,21.55
2023-02-09T17:56:58.126Z,24.35
2023-02-09T17:59:23.043Z,22.30
2023-02-09T18:01:50.391Z,22.80
2023-02-09T18:04:18.657Z,22.27
2023-02-09T18:06:43.257Z,27.52
2023-02-09T18:09:11.218Z,21.60
2023-02-09T18:12:02.235Z,19.38
2023-02-09T18:14:28.834Z,22.05
2023-02-09T18:16:55.289Z,21.40
2023-02-09T18:19:20.031Z,19.50
2023-02-09T18:21:49.174Z,19.67
2023-02-09T18:24:15.429Z,18.42
2023-02-09T18:26:40.003Z,17.83
2023-02-09T18:29:04.943Z,19.25
2023-02-09T18:31:29.695Z,19.13
2023-02-09T18:33:54.287Z,12.40
2023-02-09T18:36:18.766Z,17.77
2023-02-09T18:38:43.262Z,18.92
2023-02-09T18:41:12.852Z,19.45
2023-02-09T18:43:37.496Z,19.17
2023-02-09T18:46:02.014Z,19.33
2023-02-09T18:48:27.283Z,18.67
2023-02-09T18:50:53.036Z,20.27
2023-02-09T18:53:19.441Z,29.05
2023-02-09T18:55:44.185Z,32.22
2023-02-09T18:58:10.433Z,27.42
2023-02-09T19:00:34.948Z,26.00
2023-02-09T19:03:00.300Z,21.95
2023-02-09T19:05:26.531Z,27.38
2023-02-09T19:07:50.977Z,22.33
2023-02-09T19:10:19.834Z,18.98
2023-02-09T19:12:45.491Z,16.00
2023-02-09T19:15:11.640Z,15.48
2023-02-09T19:17:36.500Z,15.90
2023-02-09T19:20:01.690Z,15.77
2023-02-09T19:22:27.032Z,15.18
2023-02-09T19:24:53.382Z,15.63
2023-02-09T19:27:18.993Z,16.60
2023-02-09T19:29:43.853Z,20.90
2023-02-09T19:32:10.319Z,30.42
2023-02-09T19:34:37.303Z,31.83
2023-02-09T19:37:02.390Z,29.27
2023-02-09T19:39:28.343Z,22.75
2023-02-09T19:41:53.105Z,22.92
2023-02-09T19:44:17.853Z,20.73
2023-02-09T19:46:42.745Z,22.98
2023-02-09T19:49:08.779Z,24.73
2023-02-09T19:51:33.194Z,25.33
2023-02-09T19:53:57.664Z,27.48
2023-02-09T19:56:23.484Z,24.55
2023-02-09T19:58:47.994Z,23.95
2023-02-09T20:01:12.809Z,20.38
2023-02-09T20:03:37.543Z,17.50
2023-02-09T20:06:07.688Z,20.95
2023-02-09T20:08:32.153Z,18.98
2023-02-09T20:10:56.554Z,18.70
2023-02-09T20:15:50.512Z,18.02
2023-02-09T20:18:17.669Z,17.30
2023-02-09T20:20:43.095Z,15.32
2023-02-09T20:23:09.430Z,15.55
2023-02-09T20:25:33.963Z,16.65
2023-02-09T20:27:58.539Z,15.75
2023-02-09T20:30:22.988Z,15.25
2023-02-09T20:32:47.667Z,18.50
2023-02-09T20:35:13.226Z,17.17
2023-02-09T20:37:38.086Z,16.75
2023-02-09T20:40:04.364Z,21.55
2023-02-09T20:42:46.430Z,17.58
2023-02-09T20:45:31.721Z,17.05
2023-02-09T20:47:56.178Z,16.98
2023-02-09T20:50:20.577Z,17.13
2023-02-09T20:52:45.768Z,17.65
2023-02-09T20:55:11.638Z,15.32
2023-02-09T20:57:37.222Z,18.45
2023-02-09T21:00:02.029Z,16.05
2023-02-09T21:02:31.096Z,18.00
2023-02-09T21:04:57.548Z,17.42
2023-02-09T21:07:22.039Z,16.95
2023-02-09T21:09:46.531Z,16.80
2023-02-09T21:12:14.542Z,18.60
2023-02-09T21:14:42.205Z,20.20
2023-02-09T21:17:07.467Z,20.02
2023-02-09T21:19:34.441Z,24.35
2023-02-09T21:21:58.950Z,23.42
2023-02-09T21:24:23.428Z,21.50
2023-02-09T21:26:48.244Z,23.60
2023-02-09T21:29:14.855Z,20.40
2023-02-09T21:31:39.399Z,29.35
2023-02-09T21:34:04.073Z,27.33
2023-02-09T21:36:28.469Z,25.73
2023-02-09T21:38:53.119Z,20.50
2023-02-09T21:41:33.468Z,21.25
2023-02-09T21:43:58.016Z,21.38
2023-02-09T21:46:24.899Z,17.10
2023-02-09T21:48:49.343Z,21.88
2023-02-09T21:51:13.760Z,21.80
2023-02-09T21:53:38.210Z,16.30
2023-02-09T21:56:06.655Z,18.25
2023-02-09T21:58:32.284Z,18.75
2023-02-09T22:00:58.857Z,22.23
2023-02-09T22:03:24.898Z,20.13
2023-02-09T22:05:57.230Z,20.08
2023-02-09T22:08:21.622Z,22.05
2023-02-09T22:10:48.929Z,20.98
2023-02-09T22:13:14.754Z,19.10
2023-02-09T22:15:41.600Z,27.30
2023-02-09T22:18:06.139Z,25.58
2023-02-09T22:20:32.045Z,23.33
2023-02-09T22:22:56.455Z,17.63
2023-02-09T22:25:22.664Z,20.08
2023-02-09T22:27:47.096Z,30.40
2023-02-09T22:30:12.426Z,23.10
2023-02-09T22:32:37.165Z,28.30
2023-02-09T22:35:01.704Z,20.63
2023-02-09T22:37:28.890Z,35.50
2023-02-09T22:39:53.728Z,21.90
2023-02-09T22:42:18.152Z,19.30
2023-02-09T22:44:42.593Z,30.48
2023-02-09T22:47:07.214Z,29.33
2023-02-09T22:49:31.773Z,21.58
2023-02-09T22:51:56.272Z,28.55
2023-02-09T22:54:22.267Z,30.88
2023-02-09T22:56:47.241Z,30.33
2023-02-09T22:59:12.836Z,29.85
2023-02-09T23:01:37.470Z,28.73
2023-02-09T23:04:02.034Z,33.75
2023-02-09T23:06:28.710Z,35.95
2023-02-09T23:08:54.518Z,37.03
2023-02-09T23:11:20.414Z,35.45
2023-02-09T23:13:45.865Z,32.90
2023-02-09T23:16:12.295Z,32.97
2023-02-09T23:18:36.891Z,33.97
2023-02-09T23:21:03.412Z,28.27
2023-02-09T23:23:27.745Z,24.55
2023-02-09T23:25:53.419Z,23.83
2023-02-09T23:28:19.796Z,23.23
2023-02-09T23:30:45.508Z,24.23
2023-02-09T23:33:09.972Z,23.88
2023-02-09T23:35:34.620Z,26.75
2023-02-09T23:37:58.955Z,35.03
2023-02-09T23:40:23.489Z,31.85
2023-02-09T23:42:47.900Z,26.20
2023-02-09T23:45:14.102Z,27.73
2023-02-09T23:47:38.650Z,30.73
2023-02-09T23:50:03.210Z,33.95
2023-02-09T23:52:27.712Z,33.70
2023-02-09T23:54:52.413Z,34.60
2023-02-09T23:57:18.163Z,33.13
2023-02-09T23:59:42.774Z,27.17
